Terminal Aerodrome Forecast
Issued by NWS

Home | Current Version | Previous Version | Text Only | Print | Product List | Glossary On
Versions: 1 2 3 4 5 6 7 8 9 10 11 12 13 14 15 16
000
FTUS44 KBMX 231720
TAFTOI
TAF
KTOI 231720Z 2318/2418 23009G16KT P6SM OVC050
     FM240000 27003KT P6SM SCT100
     FM241000 24003KT 4SM BR OVC015
     FM241200 24004KT 2SM BR OVC007
     FM241500 26007KT P6SM BKN025=

USA.gov is the U.S. government's official web portal to all federal, state and local government web resources and services.